Time;durP1;ratioP1;P1;durP2;ratioP2;P2;SDS_P1;SDS_P2;PMS_P1;PMS_P2;Temp;Humidity;BMP_temperature;BMP_pressure;BME280_temperature;BME280_humidity;BME280_pressure;Samples;Min_cycle;Max_cycle;Signal;HPM_P1;HPM_P2
2021/03/11 00:00:56;;;;;;;25.42;19.55;;;5.50;69.60;;;;;;5093549;28;20199;-46
2021/03/11 00:03:24;;;;;;;27.70;19.30;;;5.40;69.20;;;;;;5074911;28;20253;-47
2021/03/11 00:05:51;;;;;;;28.10;19.33;;;5.70;71.00;;;;;;5092340;28;20237;-47
2021/03/11 00:08:17;;;;;;;33.90;20.05;;;5.70;70.50;;;;;;5092187;28;20242;-47
2021/03/11 00:10:44;;;;;;;27.65;20.80;;;5.60;70.90;;;;;;5074329;28;20202;-47
2021/03/11 00:13:11;;;;;;;27.58;19.45;;;5.90;71.40;;;;;;5092078;28;20187;-47
2021/03/11 00:15:39;;;;;;;26.38;19.75;;;5.20;70.90;;;;;;5073837;28;20230;-47
2021/03/11 00:18:06;;;;;;;27.08;20.63;;;5.80;71.80;;;;;;5091867;28;20575;-47
2021/03/11 00:20:33;;;;;;;27.10;19.48;;;5.70;72.10;;;;;;5091970;28;20750;-47
2021/03/11 00:22:59;;;;;;;32.97;20.60;;;5.70;72.50;;;;;;5091968;28;20561;-48
2021/03/11 00:25:28;;;;;;;30.80;21.15;;;5.70;73.40;;;;;;5092015;28;20312;-48
2021/03/11 00:27:55;;;;;;;32.90;23.33;;;5.80;73.60;;;;;;5092589;28;20334;-48
2021/03/11 00:30:23;;;;;;;32.83;22.42;;;5.20;73.20;;;;;;5093117;28;20244;-48
2021/03/11 00:32:49;;;;;;;32.00;21.17;;;5.80;74.70;;;;;;5093324;28;20293;-48
2021/03/11 00:35:16;;;;;;;34.22;23.45;;;6.30;75.60;;;;;;5093528;28;20244;-48
2021/03/11 00:37:43;;;;;;;38.40;24.38;;;5.50;74.80;;;;;;5092589;28;20301;-48
2021/03/11 00:40:12;;;;;;;36.03;23.35;;;5.50;75.10;;;;;;5092667;28;20187;-48
2021/03/11 00:42:38;;;;;;;33.47;22.20;;;5.50;75.90;;;;;;5092166;28;20243;-48
2021/03/11 00:45:09;;;;;;;31.80;22.63;;;5.80;77.00;;;;;;5073491;28;20272;-48
2021/03/11 00:47:35;;;;;;;35.20;24.98;;;5.80;76.80;;;;;;5073184;28;20229;-47
2021/03/11 00:50:02;;;;;;;37.83;23.98;;;5.70;77.10;;;;;;5091616;28;20232;-48
2021/03/11 00:52:28;;;;;;;34.90;25.30;;;5.50;77.30;;;;;;5073449;28;20199;-48
2021/03/11 00:54:54;;;;;;;32.38;22.98;;;5.70;77.20;;;;;;5091923;28;20203;-47
2021/03/11 00:57:21;;;;;;;34.08;23.40;;;5.70;77.40;;;;;;5094579;28;20226;-47
2021/03/11 00:59:49;;;;;;;34.63;24.13;;;5.70;78.20;;;;;;5073903;28;20222;-47
2021/03/11 01:02:16;;;;;;;34.83;24.33;;;5.80;79.10;;;;;;5072984;28;20219;-48
2021/03/11 01:04:43;;;;;;;36.35;24.90;;;5.60;79.50;;;;;;5073094;28;20280;-48
2021/03/11 01:07:10;;;;;;;39.65;26.30;;;5.80;80.20;;;;;;5090807;28;20203;-47
2021/03/11 01:09:37;;;;;;;37.78;26.15;;;5.80;80.20;;;;;;5072945;28;20229;-46
2021/03/11 01:12:04;;;;;;;32.35;23.67;;;5.70;81.90;;;;;;5091076;28;20198;-47
2021/03/11 01:14:30;;;;;;;38.53;24.80;;;5.40;82.30;;;;;;5091283;28;20191;-47
2021/03/11 01:16:56;;;;;;;35.75;25.50;;;5.70;82.80;;;;;;5091225;28;20229;-47
2021/03/11 01:19:23;;;;;;;32.97;24.55;;;5.70;83.90;;;;;;5091354;28;20277;-47
2021/03/11 01:21:50;;;;;;;36.60;26.60;;;5.40;83.10;;;;;;5091160;28;20201;-47
2021/03/11 01:24:16;;;;;;;38.67;25.42;;;5.70;84.10;;;;;;5091782;28;20510;-46
2021/03/11 01:26:43;;;;;;;38.53;25.80;;;5.50;84.00;;;;;;5091203;28;20199;-49
2021/03/11 01:29:09;;;;;;;48.00;26.33;;;5.40;84.50;;;;;;5091086;28;20373;-47
2021/03/11 01:31:35;;;;;;;38.58;25.48;;;5.50;85.10;;;;;;5091117;28;20219;-47
2021/03/11 01:34:02;;;;;;;38.30;26.02;;;5.30;84.80;;;;;;5091690;28;20550;-47
2021/03/11 01:36:29;;;;;;;35.65;26.45;;;5.70;85.70;;;;;;5091050;28;20204;-48
2021/03/11 01:38:55;;;;;;;37.28;25.67;;;5.60;86.90;;;;;;5091061;28;20206;-47
2021/03/11 01:41:22;;;;;;;40.45;26.33;;;5.60;87.00;;;;;;5090948;28;20190;-47
2021/03/11 01:43:48;;;;;;;39.05;27.67;;;5.70;87.30;;;;;;5091117;28;20218;-47
2021/03/11 01:46:14;;;;;;;40.00;26.48;;;5.80;87.70;;;;;;5091586;28;20207;-47
2021/03/11 01:48:40;;;;;;;37.42;26.40;;;5.70;88.10;;;;;;5091019;28;20215;-48
2021/03/11 01:51:08;;;;;;;38.72;27.38;;;5.70;87.90;;;;;;5090875;28;20187;-48
2021/03/11 01:53:36;;;;;;;39.70;27.63;;;5.60;88.90;;;;;;5090981;28;20191;-47
2021/03/11 01:56:02;;;;;;;40.28;27.35;;;5.70;90.00;;;;;;5090953;28;20244;-47
2021/03/11 01:58:29;;;;;;;40.33;28.80;;;5.80;90.10;;;;;;5090659;28;20263;-47
2021/03/11 02:00:55;;;;;;;41.38;26.20;;;5.70;90.10;;;;;;5090804;28;20186;-48
2021/03/11 02:03:22;;;;;;;44.83;28.75;;;5.80;90.60;;;;;;5072499;28;20202;-47
2021/03/11 02:05:48;;;;;;;38.25;27.77;;;5.70;90.90;;;;;;5090869;28;20202;-47
2021/03/11 02:08:15;;;;;;;40.80;28.00;;;5.80;90.80;;;;;;5090968;28;20245;-47
2021/03/11 02:10:43;;;;;;;43.55;27.35;;;5.80;91.20;;;;;;5090737;28;20671;-47
2021/03/11 02:13:25;;;;;;;38.88;26.63;;;5.60;91.00;;;;;;5090654;28;20222;-47
2021/03/11 02:15:56;;;;;;;39.72;26.75;;;5.80;91.40;;;;;;5094232;28;20183;-47
2021/03/11 02:18:27;;;;;;;40.72;28.30;;;5.70;91.50;;;;;;5072563;28;20225;-47
2021/03/11 02:21:00;;;;;;;43.38;28.20;;;5.20;91.50;;;;;;5092936;28;20237;-47
2021/03/11 02:23:58;;;;;;;45.33;29.58;;;5.80;91.80;;;;;;5094328;28;20206;-47
2021/03/11 02:26:53;;;;;;;43.97;28.13;;;5.70;91.80;;;;;;5094183;28;20187;-48
2021/03/11 02:29:26;;;;;;;46.40;28.95;;;5.90;92.40;;;;;;5075831;28;20252;-47
2021/03/11 02:31:55;;;;;;;41.42;28.33;;;5.60;92.30;;;;;;5094457;28;20210;-47
2021/03/11 02:34:25;;;;;;;42.40;27.27;;;5.70;92.70;;;;;;5094119;28;20214;-48
2021/03/11 02:36:55;;;;;;;42.15;28.05;;;5.90;92.70;;;;;;5094276;28;20681;-48
2021/03/11 02:39:25;;;;;;;38.78;27.38;;;5.40;92.60;;;;;;5094238;28;20195;-48
2021/03/11 02:41:52;;;;;;;41.45;28.90;;;5.80;92.90;;;;;;5094288;28;20214;-48
2021/03/11 02:44:21;;;;;;;42.42;28.90;;;5.30;92.90;;;;;;5094235;28;20286;-48
2021/03/11 02:46:49;;;;;;;43.67;29.30;;;5.90;93.50;;;;;;5093930;28;20202;-47
2021/03/11 02:49:16;;;;;;;42.72;29.42;;;5.40;93.10;;;;;;5093741;28;20232;-48
2021/03/11 02:51:43;;;;;;;44.25;29.75;;;5.30;93.00;;;;;;5093808;28;20199;-48
2021/03/11 02:54:10;;;;;;;43.53;29.55;;;5.80;93.70;;;;;;5093577;28;20214;-48
2021/03/11 02:56:38;;;;;;;46.20;31.58;;;6.10;93.70;;;;;;5093489;28;20288;-48
2021/03/11 02:59:06;;;;;;;41.50;29.30;;;5.80;94.10;;;;;;5116517;22;20235;-48
2021/03/11 03:01:34;;;;;;;40.75;28.30;;;5.80;94.00;;;;;;5094494;28;20629;-49
2021/03/11 03:04:02;;;;;;;42.97;29.60;;;5.80;93.80;;;;;;5093895;28;20268;-49
2021/03/11 03:06:31;;;;;;;41.03;28.42;;;6.00;94.30;;;;;;5093537;28;20256;-50
2021/03/11 03:08:58;;;;;;;44.55;28.63;;;5.80;94.70;;;;;;5092934;28;20462;-48
2021/03/11 03:11:25;;;;;;;45.47;30.08;;;6.10;95.10;;;;;;5092733;28;20198;-48
2021/03/11 03:13:53;;;;;;;36.63;27.15;;;5.70;94.90;;;;;;5093751;28;20655;-48
2021/03/11 03:16:20;;;;;;;38.17;27.60;;;6.10;95.50;;;;;;5094279;28;20281;-49
2021/03/11 03:18:47;;;;;;;43.47;29.58;;;6.10;95.70;;;;;;5094088;28;20218;-48
2021/03/11 03:21:14;;;;;;;42.88;29.98;;;6.20;96.20;;;;;;5093882;28;20209;-48
2021/03/11 03:23:44;;;;;;;44.55;28.20;;;6.20;96.30;;;;;;5093658;28;20191;-49
2021/03/11 03:26:10;;;;;;;49.55;31.25;;;5.80;96.50;;;;;;5093746;28;20222;-49
2021/03/11 03:28:36;;;;;;;45.58;30.42;;;5.80;96.50;;;;;;5094506;28;20278;-49
2021/03/11 03:31:05;;;;;;;38.40;29.13;;;5.80;96.70;;;;;;5095208;28;20198;-47
2021/03/11 03:33:31;;;;;;;44.25;28.63;;;6.20;97.30;;;;;;5094773;28;20259;-49
2021/03/11 03:35:58;;;;;;;40.78;28.52;;;6.00;97.30;;;;;;5095430;28;20214;-48
2021/03/11 03:38:25;;;;;;;45.65;28.90;;;5.90;97.80;;;;;;5095541;28;20644;-49
2021/03/11 03:40:51;;;;;;;43.83;31.90;;;6.10;98.40;;;;;;5095668;28;20194;-48
2021/03/11 03:43:20;;;;;;;51.17;33.55;;;6.10;98.50;;;;;;5095967;28;20198;-47
2021/03/11 03:45:52;;;;;;;46.95;29.50;;;6.10;99.00;;;;;;5094653;28;20609;-49
2021/03/11 03:48:26;;;;;;;43.75;29.88;;;6.20;99.20;;;;;;5093176;28;20291;-48
2021/03/11 03:50:53;;;;;;;39.83;28.55;;;6.10;99.40;;;;;;5093319;28;20635;-49
2021/03/11 03:53:25;;;;;;;47.08;30.35;;;6.00;99.70;;;;;;5093017;28;20539;-49
2021/03/11 03:55:56;;;;;;;49.13;30.45;;;6.00;99.90;;;;;;5093052;28;20187;-49
2021/03/11 03:58:24;;;;;;;45.95;30.08;;;6.20;99.90;;;;;;5092927;28;20218;-49
2021/03/11 04:00:50;;;;;;;50.28;30.67;;;6.30;99.90;;;;;;5093038;28;20195;-48
2021/03/11 04:03:18;;;;;;;45.65;31.73;;;6.30;99.90;;;;;;5092777;28;20199;-49
2021/03/11 04:05:45;;;;;;;47.20;29.35;;;6.10;99.90;;;;;;5093590;28;20227;-48
2021/03/11 04:08:11;;;;;;;51.15;31.75;;;6.30;99.90;;;;;;5092847;28;20219;-48
2021/03/11 04:10:41;;;;;;;45.00;31.35;;;6.20;99.90;;;;;;5092859;28;20253;-48
2021/03/11 04:13:07;;;;;;;47.55;29.77;;;6.00;99.90;;;;;;5092701;28;20186;-49
2021/03/11 04:15:34;;;;;;;48.33;32.97;;;6.00;99.90;;;;;;5092794;28;20218;-48
2021/03/11 04:18:01;;;;;;;46.67;30.65;;;6.20;99.90;;;;;;5092616;28;20702;-48
2021/03/11 04:20:28;;;;;;;45.85;32.22;;;5.40;99.90;;;;;;5092681;28;20191;-49
2021/03/11 04:22:56;;;;;;;46.67;32.45;;;6.10;99.90;;;;;;5092411;28;20195;-49
2021/03/11 04:25:23;;;;;;;44.63;29.98;;;6.40;99.90;;;;;;5092893;28;20209;-49
2021/03/11 04:27:50;;;;;;;46.00;30.08;;;5.80;99.90;;;;;;5092793;28;20214;-48
2021/03/11 04:30:18;;;;;;;45.38;29.17;;;6.20;99.90;;;;;;5093422;28;20222;-49
2021/03/11 04:32:45;;;;;;;46.40;30.73;;;6.00;99.90;;;;;;5092995;28;20194;-48
2021/03/11 04:35:12;;;;;;;45.60;29.23;;;6.10;99.90;;;;;;5093242;28;20202;-48
2021/03/11 04:37:39;;;;;;;42.75;29.92;;;6.10;99.90;;;;;;5092547;28;20214;-48
2021/03/11 04:40:07;;;;;;;44.53;30.10;;;6.10;99.90;;;;;;5092559;28;20213;-49
2021/03/11 04:42:35;;;;;;;50.72;32.25;;;6.10;99.90;;;;;;5091662;28;20659;-49
2021/03/11 04:45:04;;;;;;;43.03;30.13;;;6.20;99.90;;;;;;5092482;28;20222;-48
2021/03/11 04:47:31;;;;;;;49.55;29.70;;;6.10;99.90;;;;;;5092331;28;20215;-48
2021/03/11 04:49:59;;;;;;;43.92;31.10;;;6.20;99.90;;;;;;5092144;28;20305;-48
2021/03/11 04:52:26;;;;;;;44.00;29.23;;;5.90;99.90;;;;;;5091991;28;20194;-49
2021/03/11 04:54:53;;;;;;;46.13;30.98;;;6.10;99.90;;;;;;5092151;28;20195;-48
2021/03/11 04:57:19;;;;;;;44.83;27.85;;;6.10;99.90;;;;;;5090768;28;20693;-48
2021/03/11 04:59:46;;;;;;;41.75;29.52;;;6.00;99.90;;;;;;5092056;28;20190;-49
2021/03/11 05:02:14;;;;;;;46.55;29.98;;;6.20;99.90;;;;;;5091025;28;20228;-48
2021/03/11 05:04:43;;;;;;;40.30;29.27;;;6.20;99.90;;;;;;5091896;28;20247;-49
2021/03/11 05:07:09;;;;;;;40.80;28.15;;;5.50;99.90;;;;;;5092017;28;20206;-49
2021/03/11 05:09:35;;;;;;;48.30;31.02;;;6.00;99.90;;;;;;5091855;28;20280;-49
2021/03/11 05:12:02;;;;;;;40.10;28.08;;;6.20;99.90;;;;;;5092235;28;20529;-47
2021/03/11 05:14:29;;;;;;;41.65;28.48;;;6.10;99.90;;;;;;5091676;28;20202;-50
2021/03/11 05:16:55;;;;;;;44.05;28.50;;;6.20;99.90;;;;;;5092103;28;20202;-48
2021/03/11 05:19:22;;;;;;;47.08;28.10;;;5.90;99.90;;;;;;5092329;28;20218;-47
2021/03/11 05:21:48;;;;;;;44.17;29.50;;;6.20;99.90;;;;;;5092489;28;20668;-49
2021/03/11 05:24:14;;;;;;;50.60;31.42;;;6.60;99.90;;;;;;5091993;28;20263;-48
2021/03/11 05:26:40;;;;;;;41.47;27.35;;;6.10;99.90;;;;;;5092070;28;20199;-49
2021/03/11 05:29:07;;;;;;;46.92;29.83;;;6.10;99.90;;;;;;5092195;28;20294;-50
2021/03/11 05:31:33;;;;;;;42.65;28.45;;;6.00;99.90;;;;;;5092791;28;20530;-48
2021/03/11 05:33:59;;;;;;;48.40;29.33;;;6.20;99.90;;;;;;5090925;28;20194;-49
2021/03/11 05:36:27;;;;;;;44.85;29.15;;;6.00;99.90;;;;;;5093421;28;20198;-50
2021/03/11 05:38:53;;;;;;;43.85;28.58;;;6.20;99.90;;;;;;5092493;28;20245;-49
2021/03/11 05:41:22;;;;;;;43.67;28.30;;;6.20;99.90;;;;;;5092067;28;20675;-48
2021/03/11 05:43:51;;;;;;;46.50;28.55;;;6.20;99.90;;;;;;5091100;28;20553;-48
2021/03/11 05:46:18;;;;;;;40.67;28.08;;;6.40;99.90;;;;;;5091793;28;20183;-48
2021/03/11 05:48:46;;;;;;;46.60;30.85;;;6.00;99.90;;;;;;5091619;28;20231;-48
2021/03/11 05:51:14;;;;;;;46.65;31.13;;;6.40;99.90;;;;;;5091317;28;20211;-50
2021/03/11 05:53:42;;;;;;;46.20;30.45;;;6.10;99.90;;;;;;5091811;28;20259;-47
2021/03/11 05:56:10;;;;;;;43.35;29.67;;;6.10;99.90;;;;;;5095455;28;20539;-48
2021/03/11 05:58:36;;;;;;;47.70;31.25;;;6.40;99.90;;;;;;5095223;28;20275;-48
2021/03/11 06:01:03;;;;;;;49.83;30.88;;;6.40;99.90;;;;;;5095358;28;20191;-48
2021/03/11 06:03:32;;;;;;;45.45;26.98;;;6.20;99.90;;;;;;5095106;28;20276;-48
2021/03/11 06:05:59;;;;;;;45.90;29.20;;;6.40;99.90;;;;;;5095481;28;20218;-48
2021/03/11 06:08:26;;;;;;;48.03;29.30;;;6.10;99.90;;;;;;5095157;28;20206;-48
2021/03/11 06:10:54;;;;;;;44.45;27.23;;;6.20;99.90;;;;;;5094844;28;20750;-48
2021/03/11 06:13:23;;;;;;;46.13;29.35;;;6.50;99.90;;;;;;5094672;28;20195;-49
2021/03/11 06:15:50;;;;;;;41.88;27.67;;;6.20;99.90;;;;;;5094765;28;20214;-48
2021/03/11 06:18:18;;;;;;;49.38;30.45;;;6.40;99.90;;;;;;5094791;28;20215;-48
2021/03/11 06:20:45;;;;;;;45.38;29.63;;;6.00;99.90;;;;;;5094710;28;20619;-49
2021/03/11 06:23:11;;;;;;;47.63;30.10;;;6.40;99.90;;;;;;5094264;28;20190;-47
2021/03/11 06:25:39;;;;;;;42.35;28.63;;;6.40;99.90;;;;;;5094631;28;20209;-48
2021/03/11 06:28:07;;;;;;;44.53;29.73;;;6.30;99.90;;;;;;5094362;28;20591;-49
2021/03/11 06:30:34;;;;;;;43.43;28.20;;;6.40;99.90;;;;;;5094325;28;20256;-48
2021/03/11 06:33:02;;;;;;;45.88;28.65;;;6.30;99.90;;;;;;5094140;28;20490;-48
2021/03/11 06:35:28;;;;;;;46.10;28.57;;;6.40;99.90;;;;;;5094490;28;20252;-50
2021/03/11 06:37:55;;;;;;;43.63;28.97;;;6.40;99.90;;;;;;5093185;28;20477;-48
2021/03/11 06:40:24;;;;;;;47.22;29.73;;;6.60;99.90;;;;;;5094295;28;20421;-48
2021/03/11 06:42:52;;;;;;;46.38;28.65;;;6.40;99.90;;;;;;5093957;28;20191;-47
2021/03/11 06:45:25;;;;;;;41.00;28.05;;;6.50;99.90;;;;;;5094142;28;20306;-49
2021/03/11 06:47:52;;;;;;;46.53;29.55;;;6.30;99.90;;;;;;5094113;28;20210;-50
2021/03/11 06:50:22;;;;;;;42.80;29.05;;;6.30;99.90;;;;;;5093754;28;20230;-48
2021/03/11 06:53:02;;;;;;;41.50;28.50;;;6.30;99.90;;;;;;5094020;28;20205;-48
2021/03/11 06:55:28;;;;;;;47.73;29.60;;;6.60;99.90;;;;;;5094426;28;20878;-49
2021/03/11 06:57:54;;;;;;;47.40;28.40;;;6.40;99.90;;;;;;5093858;28;20464;-49
2021/03/11 07:00:23;;;;;;;44.78;29.23;;;6.50;99.90;;;;;;5094028;28;20510;-48
2021/03/11 07:02:51;;;;;;;45.08;27.55;;;6.30;99.90;;;;;;5094027;28;20194;-50
2021/03/11 07:05:19;;;;;;;49.70;31.52;;;6.50;99.90;;;;;;5093583;28;20269;-49
2021/03/11 07:07:46;;;;;;;44.20;29.73;;;6.50;99.90;;;;;;5093735;28;20222;-48
2021/03/11 07:10:23;;;;;;;44.90;29.05;;;5.90;99.90;;;;;;5093808;28;20830;-48
2021/03/11 07:12:50;;;;;;;51.10;29.77;;;6.40;99.90;;;;;;5093443;28;20206;-49
2021/03/11 07:15:18;;;;;;;47.72;30.23;;;6.50;99.90;;;;;;5092826;28;20938;-49
2021/03/11 07:17:45;;;;;;;47.80;29.67;;;6.20;99.90;;;;;;5093611;28;20223;-50
2021/03/11 07:20:14;;;;;;;46.75;29.83;;;6.30;99.90;;;;;;5093795;28;20253;-48
2021/03/11 07:22:41;;;;;;;47.15;27.95;;;5.80;99.90;;;;;;5093325;28;20224;-49
2021/03/11 07:25:26;;;;;;;46.45;27.60;;;6.40;99.90;;;;;;5094191;28;20682;-49
2021/03/11 07:27:53;;;;;;;44.58;24.92;;;6.50;99.90;;;;;;5093301;28;20237;-48
2021/03/11 07:30:22;;;;;;;43.17;27.02;;;6.40;99.90;;;;;;5093423;28;20229;-48
2021/03/11 07:32:49;;;;;;;45.10;28.70;;;6.60;99.90;;;;;;5092076;28;20203;-49
2021/03/11 07:35:17;;;;;;;45.92;28.55;;;6.30;99.90;;;;;;5093018;28;20244;-49
2021/03/11 07:37:49;;;;;;;46.45;27.63;;;6.10;99.90;;;;;;5093634;28;20620;-49
2021/03/11 07:40:16;;;;;;;43.90;27.85;;;6.50;99.90;;;;;;5093090;28;20248;-49
2021/03/11 07:42:43;;;;;;;43.83;27.10;;;6.30;99.90;;;;;;5092178;28;20517;-48
2021/03/11 07:45:14;;;;;;;40.25;26.33;;;6.50;99.90;;;;;;5091794;28;20218;-48
2021/03/11 07:47:41;;;;;;;41.40;27.43;;;6.60;99.90;;;;;;5092899;28;20225;-48
2021/03/11 07:50:11;;;;;;;43.97;26.48;;;6.40;99.90;;;;;;5093125;28;20989;-50
2021/03/11 07:52:38;;;;;;;40.17;29.10;;;6.40;99.90;;;;;;5092825;28;20187;-48
2021/03/11 07:55:06;;;;;;;40.70;26.17;;;6.70;99.90;;;;;;5093202;28;20202;-49
2021/03/11 07:57:36;;;;;;;37.50;25.73;;;6.70;99.90;;;;;;5092800;28;20221;-48
2021/03/11 08:00:04;;;;;;;43.00;27.55;;;6.40;99.90;;;;;;5092849;28;20251;-49
2021/03/11 08:02:42;;;;;;;38.25;26.25;;;6.70;99.90;;;;;;5092084;28;20199;-49
2021/03/11 08:05:11;;;;;;;37.67;25.00;;;6.20;99.90;;;;;;5092849;28;20191;-48
2021/03/11 08:07:38;;;;;;;38.90;25.63;;;6.70;99.90;;;;;;5092868;28;20468;-48
2021/03/11 08:10:20;;;;;;;39.40;25.17;;;6.70;99.90;;;;;;5092574;28;20493;-48
2021/03/11 08:12:47;;;;;;;38.28;24.63;;;6.70;99.90;;;;;;5092362;28;21036;-49
2021/03/11 08:15:32;;;;;;;41.03;26.67;;;6.70;99.90;;;;;;5092964;28;20656;-48
2021/03/11 08:17:58;;;;;;;35.65;24.40;;;6.90;99.90;;;;;;5093499;28;20615;-49
2021/03/11 08:20:46;;;;;;;41.65;27.38;;;6.50;99.90;;;;;;5093480;28;20284;-49
2021/03/11 08:23:13;;;;;;;37.73;26.63;;;6.80;99.90;;;;;;5089455;28;20697;-49
2021/03/11 08:25:49;;;;;;;36.90;25.17;;;6.80;99.90;;;;;;5092154;28;20511;-48
2021/03/11 08:28:38;;;;;;;40.43;27.23;;;6.90;99.90;;;;;;5092515;28;20780;-48
2021/03/11 08:31:06;;;;;;;39.65;26.33;;;6.70;99.90;;;;;;5092399;28;20480;-48
2021/03/11 08:33:46;;;;;;;37.50;25.25;;;6.90;99.90;;;;;;5092514;28;20191;-47
2021/03/11 08:36:37;;;;;;;43.92;27.95;;;7.00;99.90;;;;;;5093006;28;20194;-48
2021/03/11 08:39:05;;;;;;;38.20;26.23;;;6.90;99.90;;;;;;5092588;28;20206;-48
2021/03/11 08:41:34;;;;;;;39.38;26.92;;;6.90;99.90;;;;;;5093032;28;20198;-47
2021/03/11 08:44:03;;;;;;;36.60;24.53;;;6.70;99.90;;;;;;5092568;28;20232;-48
2021/03/11 08:46:50;;;;;;;38.42;27.98;;;6.80;99.90;;;;;;5092887;28;20438;-48
2021/03/11 08:49:41;;;;;;;38.27;23.73;;;6.70;99.90;;;;;;5092656;28;20225;-48
2021/03/11 08:52:43;;;;;;;35.23;23.20;;;6.80;99.90;;;;;;5091707;28;20430;-49
2021/03/11 08:55:32;;;;;;;34.17;24.90;;;7.00;99.90;;;;;;5092050;28;20471;-49
2021/03/11 08:57:59;;;;;;;37.07;26.43;;;7.10;99.90;;;;;;5111650;22;20564;-44
2021/03/11 09:00:58;;;;;;;38.42;24.95;;;7.20;99.90;;;;;;5071586;28;20438;-45
2021/03/11 09:03:51;;;;;;;37.27;24.67;;;6.90;99.90;;;;;;5071076;28;20190;-46
2021/03/11 09:06:20;;;;;;;37.93;25.30;;;7.30;99.90;;;;;;5071870;28;20912;-44
2021/03/11 09:08:53;;;;;;;32.47;24.65;;;7.20;99.90;;;;;;5071574;28;20533;-45
2021/03/11 09:11:21;;;;;;;38.25;26.55;;;7.20;99.90;;;;;;5071495;28;20199;-45
2021/03/11 09:13:49;;;;;;;35.13;26.57;;;6.40;99.90;;;;;;5070870;28;20242;-45
2021/03/11 09:16:16;;;;;;;40.75;26.80;;;7.00;99.90;;;;;;5071033;28;20446;-45
2021/03/11 09:18:43;;;;;;;40.43;26.73;;;7.20;99.90;;;;;;5052831;28;20227;-46
2021/03/11 09:21:10;;;;;;;42.27;27.53;;;7.10;99.90;;;;;;5071211;28;20892;-45
2021/03/11 09:23:40;;;;;;;33.38;24.33;;;7.00;99.90;;;;;;5071119;28;20442;-45
2021/03/11 09:26:08;;;;;;;37.30;24.80;;;7.00;99.90;;;;;;5071925;28;20230;-45
2021/03/11 09:28:35;;;;;;;35.07;24.20;;;7.40;99.90;;;;;;5072210;28;20448;-46
2021/03/11 09:31:02;;;;;;;33.23;24.37;;;7.10;99.90;;;;;;5075761;28;21004;-45
2021/03/11 09:33:29;;;;;;;37.87;24.77;;;7.40;99.90;;;;;;5075422;28;20806;-44
2021/03/11 09:35:56;;;;;;;32.05;23.27;;;7.30;99.90;;;;;;5075471;28;20438;-45
2021/03/11 09:38:25;;;;;;;36.10;24.10;;;7.30;99.90;;;;;;5076247;28;20219;-46
2021/03/11 09:40:54;;;;;;;35.07;24.17;;;7.30;99.90;;;;;;5078224;28;20515;-45
2021/03/11 09:43:26;;;;;;;28.63;21.07;;;7.30;99.90;;;;;;5076524;28;20431;-46
2021/03/11 09:45:56;;;;;;;34.10;22.37;;;7.30;99.90;;;;;;5075931;28;20838;-46
2021/03/11 09:48:25;;;;;;;32.23;21.90;;;7.30;99.90;;;;;;5076027;28;20454;-45
2021/03/11 09:51:01;;;;;;;31.20;21.07;;;7.60;99.90;;;;;;5075235;28;20500;-45
2021/03/11 09:53:40;;;;;;;33.50;20.20;;;7.70;99.90;;;;;;5075277;28;20453;-45
2021/03/11 09:56:10;;;;;;;29.40;20.23;;;7.40;99.90;;;;;;5075288;28;20567;-46
2021/03/11 09:58:44;;;;;;;28.00;20.20;;;7.70;99.90;;;;;;5075620;28;20428;-46
2021/03/11 10:01:11;;;;;;;28.13;20.50;;;7.90;99.90;;;;;;5057233;28;20458;-46
2021/03/11 10:03:38;;;;;;;29.77;22.03;;;7.70;99.90;;;;;;5074242;28;20430;-46
2021/03/11 10:06:06;;;;;;;28.40;21.80;;;7.60;99.90;;;;;;5074908;28;20483;-45
2021/03/11 10:08:36;;;;;;;28.23;20.47;;;7.70;99.90;;;;;;5074673;28;20896;-47
2021/03/11 10:11:17;;;;;;;27.37;20.40;;;8.20;99.90;;;;;;5074400;28;21060;-45
2021/03/11 10:13:48;;;;;;;27.87;20.13;;;7.70;99.90;;;;;;5056459;28;20939;-45
2021/03/11 10:16:34;;;;;;;22.93;18.20;;;8.00;99.90;;;;;;5074725;28;20927;-46
2021/03/11 10:19:04;;;;;;;25.13;19.73;;;8.00;99.90;;;;;;5074876;28;20441;-46
2021/03/11 10:21:32;;;;;;;27.17;18.77;;;8.10;99.90;;;;;;5075794;28;20434;-45
2021/03/11 10:23:59;;;;;;;26.90;17.93;;;8.00;99.90;;;;;;5076606;28;20478;-45
2021/03/11 10:26:27;;;;;;;27.10;20.43;;;8.00;99.90;;;;;;5078416;28;20414;-46
2021/03/11 10:29:03;;;;;;;22.70;17.17;;;8.30;99.90;;;;;;5074721;28;20455;-45
2021/03/11 10:31:30;;;;;;;22.70;17.30;;;7.90;99.90;;;;;;5074002;28;20413;-46
2021/03/11 10:34:01;;;;;;;26.13;18.37;;;8.00;99.90;;;;;;5074490;28;20518;-45
2021/03/11 10:36:29;;;;;;;24.87;17.97;;;8.10;99.90;;;;;;5074311;28;20420;-45
2021/03/11 10:39:18;;;;;;;29.30;18.70;;;8.00;99.90;;;;;;5073825;28;20474;-45
2021/03/11 10:41:59;;;;;;;24.20;18.77;;;8.40;99.90;;;;;;5068419;28;20453;-46
2021/03/11 10:44:27;;;;;;;26.50;18.23;;;8.20;99.90;;;;;;5073537;28;20461;-45
2021/03/11 10:47:11;;;;;;;26.93;17.93;;;8.30;99.90;;;;;;5056422;28;20496;-45
2021/03/11 10:49:39;;;;;;;22.47;17.37;;;8.40;99.90;;;;;;5073759;28;20492;-46
2021/03/11 10:52:06;;;;;;;21.40;17.90;;;8.40;99.90;;;;;;5073998;28;20493;-45
2021/03/11 10:54:33;;;;;;;21.70;15.90;;;8.30;99.90;;;;;;5073824;28;21010;-45
2021/03/11 10:57:08;;;;;;;20.47;16.87;;;8.40;99.90;;;;;;5073357;28;20437;-46
2021/03/11 10:59:50;;;;;;;22.90;17.80;;;8.50;99.90;;;;;;5073546;28;20500;-46
2021/03/11 11:02:17;;;;;;;21.30;16.20;;;9.00;99.90;;;;;;5073548;28;20417;-47
2021/03/11 11:04:44;;;;;;;24.07;17.23;;;8.90;99.90;;;;;;5073659;28;20534;-46
2021/03/11 11:07:11;;;;;;;20.40;16.40;;;8.90;99.90;;;;;;5073499;28;20483;-45
2021/03/11 11:09:39;;;;;;;24.33;16.67;;;9.40;99.90;;;;;;5073600;28;20476;-46
2021/03/11 11:12:08;;;;;;;22.43;17.50;;;9.20;99.90;;;;;;5073780;28;20437;-47
2021/03/11 11:14:35;;;;;;;21.97;16.30;;;9.20;99.90;;;;;;5073013;28;20430;-47
2021/03/11 11:17:04;;;;;;;18.87;14.57;;;9.30;99.90;;;;;;5054764;28;20930;-45
2021/03/11 11:19:31;;;;;;;22.47;16.87;;;9.10;99.90;;;;;;5073442;28;20578;-46
2021/03/11 11:21:59;;;;;;;16.80;14.33;;;9.60;99.90;;;;;;5073320;28;20442;-45
2021/03/11 11:24:26;;;;;;;18.90;14.57;;;9.60;99.90;;;;;;5056364;28;20480;-45
2021/03/11 11:26:54;;;;;;;18.17;14.90;;;10.00;99.90;;;;;;5073934;28;20415;-46
2021/03/11 11:29:22;;;;;;;22.40;18.20;;;9.70;99.90;;;;;;5073703;28;20488;-46
2021/03/11 11:31:49;;;;;;;20.43;16.07;;;9.70;99.90;;;;;;5074716;28;20416;-46
2021/03/11 11:34:19;;;;;;;17.43;14.20;;;9.60;99.90;;;;;;5073572;28;20434;-46
2021/03/11 11:36:46;;;;;;;19.87;16.30;;;9.80;99.90;;;;;;5074263;28;20434;-47
2021/03/11 11:39:13;;;;;;;18.03;14.20;;;9.70;99.90;;;;;;5074123;28;20456;-47
2021/03/11 11:41:41;;;;;;;18.47;14.80;;;9.90;99.90;;;;;;5073474;28;20436;-46
2021/03/11 11:44:10;;;;;;;24.57;13.50;;;10.10;99.90;;;;;;5072937;28;20438;-46
2021/03/11 11:46:37;;;;;;;17.43;13.87;;;10.00;99.90;;;;;;5072928;28;20426;-46
2021/03/11 11:49:04;;;;;;;15.40;13.70;;;10.30;99.90;;;;;;5072799;28;20456;-46
2021/03/11 11:51:32;;;;;;;17.67;14.37;;;10.00;99.90;;;;;;5071901;28;20449;-47
2021/03/11 11:53:59;;;;;;;16.23;13.50;;;10.00;99.90;;;;;;5071799;28;20426;-47
2021/03/11 11:56:26;;;;;;;16.03;13.20;;;9.90;99.90;;;;;;5072736;28;20449;-46
2021/03/11 11:58:52;;;;;;;16.40;13.00;;;10.10;99.90;;;;;;5072520;28;20466;-45
2021/03/11 12:01:19;;;;;;;14.50;11.20;;;10.30;99.90;;;;;;5072747;28;20433;-47
2021/03/11 12:03:46;;;;;;;15.20;12.30;;;10.20;99.90;;;;;;5072611;28;20430;-46
2021/03/11 12:06:13;;;;;;;18.37;12.17;;;10.20;99.90;;;;;;5072283;28;20524;-47
2021/03/11 12:08:41;;;;;;;16.13;12.30;;;10.00;99.90;;;;;;5072481;28;20548;-46
2021/03/11 12:11:08;;;;;;;14.10;10.97;;;10.20;99.90;;;;;;5072340;28;20488;-46
2021/03/11 12:13:35;;;;;;;14.70;11.73;;;10.30;99.90;;;;;;5054022;28;20449;-46
2021/03/11 12:16:02;;;;;;;19.50;15.03;;;10.40;99.90;;;;;;5072878;28;20433;-46
2021/03/11 12:18:29;;;;;;;14.90;11.30;;;10.60;99.90;;;;;;5054586;28;20458;-46
2021/03/11 12:20:56;;;;;;;13.83;10.70;;;10.30;99.90;;;;;;5072227;28;20437;-45
2021/03/11 12:23:22;;;;;;;13.90;11.90;;;10.30;99.90;;;;;;5071385;28;20528;-47
2021/03/11 12:25:50;;;;;;;13.53;12.13;;;10.30;99.90;;;;;;5072332;28;20429;-46
2021/03/11 12:28:17;;;;;;;17.33;13.07;;;10.60;99.90;;;;;;5071587;28;21000;-46
2021/03/11 12:30:43;;;;;;;14.37;11.63;;;10.80;99.90;;;;;;5071072;28;20861;-45
2021/03/11 12:33:10;;;;;;;24.80;12.87;;;10.40;99.90;;;;;;5071294;28;20434;-46
2021/03/11 12:35:36;;;;;;;12.93;10.70;;;10.80;99.90;;;;;;5071656;28;20434;-47
2021/03/11 12:38:03;;;;;;;13.13;10.70;;;10.60;99.90;;;;;;5072853;28;20458;-45
2021/03/11 12:40:30;;;;;;;13.60;11.13;;;11.20;99.90;;;;;;5071781;28;20438;-46
2021/03/11 12:42:58;;;;;;;14.13;10.40;;;10.80;99.90;;;;;;5053591;28;20445;-46
2021/03/11 12:45:25;;;;;;;12.07;10.27;;;11.10;99.90;;;;;;5072029;28;20434;-51